createdAt,value
2017-02-04T00:00:58.916Z,996.19
2017-02-04T00:02:08.344Z,996.18
2017-02-04T00:03:18.544Z,996.1
2017-02-04T00:04:27.981Z,996.04
2017-02-04T00:05:37.842Z,996.1
2017-02-04T00:06:46.888Z,996.1
2017-02-04T00:07:56.318Z,995.98
2017-02-04T00:09:06.511Z,996.06
2017-02-04T00:10:15.555Z,996.07
2017-02-04T00:11:24.654Z,996.01
2017-02-04T00:12:35.233Z,996.05
2017-02-04T00:13:44.659Z,996
2017-02-04T00:14:54.475Z,995.98
2017-02-04T00:16:04.288Z,995.93
2017-02-04T00:17:13.332Z,996.03
2017-02-04T00:18:23.148Z,995.94
2017-02-04T00:19:33.772Z,995.92
2017-02-04T00:20:43.965Z,995.93
2017-02-04T00:21:53.015Z,996.01
2017-02-04T00:23:02.824Z,996.01
2017-02-04T00:24:12.254Z,996
2017-02-04T00:25:21.723Z,996.02
2017-02-04T00:26:31.157Z,995.97
2017-02-04T00:27:40.208Z,996.03
2017-02-04T00:28:50.064Z,995.97
2017-02-04T00:29:59.880Z,995.86
2017-02-04T00:31:09.690Z,996.02
2017-02-04T00:32:19.885Z,995.95
2017-02-04T00:33:29.706Z,996.01
2017-02-04T00:34:39.139Z,996.01
2017-02-04T00:35:48.949Z,995.98
2017-02-04T00:36:58.378Z,996.04
2017-02-04T00:38:07.814Z,996.04
2017-02-04T00:39:17.246Z,995.94
2017-02-04T00:40:27.492Z,996.05
2017-02-04T00:41:37.305Z,996.09
2017-02-04T00:42:46.735Z,996.05
2017-02-04T00:43:56.171Z,996.05
2017-02-04T00:45:05.601Z,996.1
2017-02-04T00:46:15.415Z,996.07
2017-02-04T00:47:24.847Z,996.13
2017-02-04T00:48:34.280Z,996.1
2017-02-04T00:49:44.096Z,996.12
2017-02-04T00:50:53.534Z,996.11
2017-02-04T00:52:03.348Z,996.18
2017-02-04T00:53:12.390Z,996.15
2017-02-04T00:54:21.441Z,996.16
2017-02-04T00:55:31.258Z,996.15
2017-02-04T00:56:40.684Z,996.23
2017-02-04T00:57:50.497Z,996.21
2017-02-04T00:59:00.311Z,996.15
2017-02-04T01:00:10.514Z,996.18
2017-02-04T01:01:19.940Z,996.25
2017-02-04T01:02:29.407Z,996.22
2017-02-04T01:03:38.451Z,996.24
2017-02-04T01:04:48.267Z,996.11
2017-02-04T01:05:58.088Z,996.23
2017-02-04T01:07:07.517Z,996.26
2017-02-04T01:08:17.328Z,996.26
2017-02-04T01:09:26.379Z,996.23
2017-02-04T01:10:36.190Z,996.24
2017-02-04T01:11:46.003Z,996.26
2017-02-04T01:12:56.205Z,996.17
2017-02-04T01:14:06.405Z,996.25
2017-02-04T01:15:16.598Z,996.27
2017-02-04T01:16:26.448Z,996.24
2017-02-04T01:17:36.263Z,996.29
2017-02-04T01:18:46.083Z,996.28
2017-02-04T01:19:56.662Z,996.32
2017-02-04T01:21:06.498Z,996.24
2017-02-04T01:22:15.921Z,996.35
2017-02-04T01:23:25.738Z,996.36
2017-02-04T01:24:34.400Z,996.36
2017-02-04T01:25:44.976Z,996.38
2017-02-04T01:26:54.459Z,996.37
2017-02-04T01:28:03.898Z,996.43
2017-02-04T01:29:12.946Z,996.47
2017-02-04T01:30:22.760Z,996.38
2017-02-04T01:31:32.573Z,996.42
2017-02-04T01:32:42.766Z,996.46
2017-02-04T01:33:52.192Z,996.48
2017-02-04T01:35:02.010Z,996.51
2017-02-04T01:36:11.443Z,996.5
2017-02-04T01:37:20.871Z,996.52
2017-02-04T01:38:31.070Z,996.56
2017-02-04T01:39:40.881Z,996.56
2017-02-04T01:40:50.310Z,996.59
2017-02-04T01:42:00.154Z,996.57
2017-02-04T01:43:09.200Z,996.59
2017-02-04T01:44:19.057Z,996.57
2017-02-04T01:45:28.493Z,996.6
2017-02-04T01:46:37.920Z,996.61
2017-02-04T01:47:48.115Z,996.64
2017-02-04T01:48:57.165Z,996.73
2017-02-04T01:50:06.216Z,996.73
2017-02-04T01:51:16.027Z,996.65
2017-02-04T01:52:25.460Z,996.7
2017-02-04T01:53:35.309Z,996.72
2017-02-04T01:54:44.355Z,996.69
2017-02-04T01:55:53.404Z,996.64
2017-02-04T01:57:03.225Z,996.69
2017-02-04T01:58:13.040Z,996.76
2017-02-04T01:59:22.088Z,996.67
2017-02-04T02:00:31.517Z,996.76
2017-02-04T02:01:40.991Z,996.73
2017-02-04T02:02:50.039Z,996.79
2017-02-04T02:03:59.854Z,996.74
2017-02-04T02:05:09.285Z,996.74
2017-02-04T02:06:18.714Z,996.71
2017-02-04T02:07:27.759Z,996.7
2017-02-04T02:08:37.572Z,996.72
2017-02-04T02:09:47.765Z,996.81
2017-02-04T02:10:57.194Z,996.87
2017-02-04T02:12:07.389Z,996.85
2017-02-04T02:13:16.484Z,996.86
2017-02-04T02:14:26.299Z,996.82
2017-02-04T02:15:36.884Z,996.92
2017-02-04T02:16:46.697Z,996.91
2017-02-04T02:17:56.131Z,996.95
2017-02-04T02:19:05.945Z,996.95
2017-02-04T02:20:16.143Z,996.91
2017-02-04T02:21:25.571Z,997
2017-02-04T02:22:35.379Z,996.94
2017-02-04T02:23:44.038Z,996.9
2017-02-04T02:24:54.234Z,996.9
2017-02-04T02:26:04.052Z,996.97
2017-02-04T02:27:13.861Z,996.99
2017-02-04T02:28:24.090Z,997.04
2017-02-04T02:29:34.289Z,997.06
2017-02-04T02:30:43.337Z,997.03
2017-02-04T02:31:53.534Z,997.1
2017-02-04T02:33:03.736Z,997.16
2017-02-04T02:34:13.160Z,997.13
2017-02-04T02:35:22.586Z,997.02
2017-02-04T02:36:32.070Z,997.05
2017-02-04T02:37:41.494Z,997.11
2017-02-04T02:38:50.544Z,997.14
2017-02-04T02:39:59.591Z,997.24
2017-02-04T02:41:09.023Z,997.23
2017-02-04T02:42:18.448Z,997.23
2017-02-04T02:43:28.645Z,997.21
2017-02-04T02:44:37.690Z,997.16
2017-02-04T02:45:47.505Z,997.19
2017-02-04T02:46:57.699Z,997.19
2017-02-04T02:48:06.745Z,997.28
2017-02-04T02:49:15.794Z,997.25
2017-02-04T02:50:25.992Z,997.28
2017-02-04T02:51:35.037Z,997.28
2017-02-04T02:52:45.227Z,997.27
2017-02-04T02:53:54.673Z,997.26
2017-02-04T02:55:04.483Z,997.26
2017-02-04T02:56:15.057Z,997.26
2017-02-04T02:57:24.485Z,997.34
2017-02-04T02:58:33.151Z,997.3
2017-02-04T02:59:42.581Z,997.32
2017-02-04T03:00:51.624Z,997.31
2017-02-04T03:02:01.829Z,997.38
2017-02-04T03:03:11.259Z,997.43
2017-02-04T03:04:21.074Z,997.42
2017-02-04T03:05:30.121Z,997.47
2017-02-04T03:06:39.932Z,997.53
2017-02-04T03:07:49.358Z,997.52
2017-02-04T03:08:59.554Z,997.54
2017-02-04T03:10:09.366Z,997.55
2017-02-04T03:11:19.228Z,997.58
2017-02-04T03:12:29.420Z,997.58
2017-02-04T03:13:38.463Z,997.6
2017-02-04T03:14:47.510Z,997.58
2017-02-04T03:15:56.169Z,997.64
2017-02-04T03:17:05.984Z,997.63
2017-02-04T03:18:15.407Z,997.65
2017-02-04T03:19:25.220Z,997.7
2017-02-04T03:20:34.650Z,997.69
2017-02-04T03:21:43.697Z,997.72
2017-02-04T03:22:53.122Z,997.73
2017-02-04T03:24:02.936Z,997.75
2017-02-04T03:25:12.745Z,997.73
2017-02-04T03:26:22.559Z,997.78
2017-02-04T03:27:31.990Z,997.82
2017-02-04T03:28:42.187Z,997.77
2017-02-04T03:29:52.767Z,997.84
2017-02-04T03:31:02.967Z,997.85
2017-02-04T03:32:12.777Z,997.84
2017-02-04T03:33:22.201Z,997.86
2017-02-04T03:34:31.677Z,997.83
2017-02-04T03:35:41.527Z,997.84
2017-02-04T03:36:51.720Z,997.86
2017-02-04T03:38:01.148Z,997.9
2017-02-04T03:39:10.193Z,997.92
2017-02-04T03:40:19.621Z,997.93
2017-02-04T03:41:30.199Z,997.89
2017-02-04T03:42:38.862Z,997.93
2017-02-04T03:43:48.678Z,997.93
2017-02-04T03:44:58.493Z,997.92
2017-02-04T03:46:07.536Z,998
2017-02-04T03:47:16.199Z,997.96
2017-02-04T03:48:26.051Z,998.02
2017-02-04T03:49:34.716Z,998.03
2017-02-04T03:50:44.146Z,998.08
2017-02-04T03:51:54.014Z,998.06
2017-02-04T03:53:03.822Z,998.13
2017-02-04T03:54:12.863Z,998.15
2017-02-04T03:55:21.536Z,998.14
2017-02-04T03:56:30.968Z,998.13
2017-02-04T03:57:40.830Z,998.15
2017-02-04T03:58:50.257Z,998.11
2017-02-04T04:00:00.071Z,998.16
2017-02-04T04:01:09.502Z,998.14
2017-02-04T04:02:19.314Z,998.15
2017-02-04T04:03:28.741Z,998.19
2017-02-04T04:04:37.780Z,998.21
2017-02-04T04:05:47.206Z,998.15
2017-02-04T04:06:56.638Z,998.09
2017-02-04T04:08:06.836Z,998.21
2017-02-04T04:09:16.650Z,998.27
2017-02-04T04:10:25.697Z,998.3
2017-02-04T04:11:34.742Z,998.28
2017-02-04T04:12:43.786Z,998.29
2017-02-04T04:13:53.597Z,998.28
2017-02-04T04:15:03.027Z,998.3
2017-02-04T04:16:12.834Z,998.26
2017-02-04T04:17:22.264Z,998.25
2017-02-04T04:18:32.838Z,998.25
2017-02-04T04:19:42.263Z,998.27
2017-02-04T04:20:52.074Z,998.26
2017-02-04T04:22:02.270Z,998.23
2017-02-04T04:23:12.459Z,998.2
2017-02-04T04:24:21.890Z,998.24
2017-02-04T04:25:32.084Z,998.23
2017-02-04T04:26:41.553Z,998.27
2017-02-04T04:27:51.749Z,998.28
2017-02-04T04:29:02.321Z,998.28
2017-02-04T04:30:11.366Z,998.29
2017-02-04T04:31:20.403Z,998.34
2017-02-04T04:32:30.596Z,998.35
2017-02-04T04:33:40.022Z,998.36
2017-02-04T04:34:49.837Z,998.43
2017-02-04T04:35:58.500Z,998.38
2017-02-04T04:37:07.540Z,998.42
2017-02-04T04:38:17.397Z,998.43
2017-02-04T04:39:27.595Z,998.47
2017-02-04T04:40:37.022Z,998.44
2017-02-04T04:41:46.831Z,998.45
2017-02-04T04:42:56.257Z,998.36
2017-02-04T04:44:05.306Z,998.4
2017-02-04T04:45:13.967Z,998.41
2017-02-04T04:46:23.776Z,998.38
2017-02-04T04:47:33.590Z,998.41
2017-02-04T04:48:43.019Z,998.4
2017-02-04T04:49:52.825Z,998.43
2017-02-04T04:51:02.639Z,998.37
2017-02-04T04:52:12.456Z,998.37
2017-02-04T04:53:22.269Z,998.37
2017-02-04T04:54:32.071Z,998.41
2017-02-04T04:55:41.884Z,998.46
2017-02-04T04:56:51.312Z,998.48
2017-02-04T04:58:01.118Z,998.48
2017-02-04T04:59:10.934Z,998.54
2017-02-04T05:00:19.975Z,998.53
2017-02-04T05:01:30.173Z,998.56
2017-02-04T05:02:39.984Z,998.55
2017-02-04T05:03:49.413Z,998.6
2017-02-04T05:04:59.252Z,998.67
2017-02-04T05:06:09.065Z,998.68
2017-02-04T05:07:19.646Z,998.69
2017-02-04T05:08:29.469Z,998.67
2017-02-04T05:09:38.521Z,998.67
2017-02-04T05:10:48.335Z,998.66
2017-02-04T05:11:58.150Z,998.67
2017-02-04T05:13:07.622Z,998.65
2017-02-04T05:14:17.057Z,998.69
2017-02-04T05:15:26.900Z,998.68
2017-02-04T05:16:35.943Z,998.62
2017-02-04T05:17:45.369Z,998.68
2017-02-04T05:18:55.178Z,998.71
2017-02-04T05:20:04.984Z,998.67
2017-02-04T05:21:14.797Z,998.62
2017-02-04T05:22:23.842Z,998.66
2017-02-04T05:23:33.269Z,998.65
2017-02-04T05:24:42.742Z,998.68
2017-02-04T05:25:52.170Z,998.63
2017-02-04T05:27:01.985Z,998.59
2017-02-04T05:28:11.795Z,998.63
2017-02-04T05:29:21.989Z,998.55
2017-02-04T05:30:31.419Z,998.57
2017-02-04T05:31:40.461Z,998.52
2017-02-04T05:32:49.888Z,998.57
2017-02-04T05:34:00.463Z,998.58
2017-02-04T05:35:09.508Z,998.58
2017-02-04T05:36:19.371Z,998.61
2017-02-04T05:37:28.414Z,998.57
2017-02-04T05:38:38.227Z,998.56
2017-02-04T05:39:47.659Z,998.6
2017-02-04T05:40:57.470Z,998.64
2017-02-04T05:42:06.897Z,998.61
2017-02-04T05:43:16.714Z,998.62
2017-02-04T05:44:26.521Z,998.62
2017-02-04T05:45:36.332Z,998.58
2017-02-04T05:46:45.769Z,998.55
2017-02-04T05:47:55.627Z,998.57
2017-02-04T05:49:04.673Z,998.6
2017-02-04T05:50:14.103Z,998.65
2017-02-04T05:51:23.149Z,998.66
2017-02-04T05:52:32.582Z,998.71
2017-02-04T05:53:42.016Z,998.74
2017-02-04T05:54:51.825Z,998.71
2017-02-04T05:56:01.261Z,998.66
2017-02-04T05:57:10.688Z,998.64
2017-02-04T05:58:20.503Z,998.7
2017-02-04T05:59:30.311Z,998.67
2017-02-04T06:00:40.890Z,998.62
2017-02-04T06:01:50.319Z,998.66
2017-02-04T06:03:00.133Z,998.66
2017-02-04T06:04:10.331Z,998.66
2017-02-04T06:05:19.810Z,998.6
2017-02-04T06:06:29.236Z,998.71
2017-02-04T06:07:39.047Z,998.66
2017-02-04T06:08:48.473Z,998.66
2017-02-04T06:09:58.287Z,998.68
2017-02-04T06:11:07.329Z,998.68
2017-02-04T06:12:16.754Z,998.67
2017-02-04T06:13:26.567Z,998.63
2017-02-04T06:14:36.759Z,998.66
2017-02-04T06:15:46.188Z,998.64
2017-02-04T06:16:56.047Z,998.69
2017-02-04T06:18:05.472Z,998.66
2017-02-04T06:19:15.322Z,998.61
2017-02-04T06:20:25.514Z,998.66
2017-02-04T06:21:34.941Z,998.63
2017-02-04T06:22:43.979Z,998.63
2017-02-04T06:23:54.212Z,998.66
2017-02-04T06:25:04.406Z,998.56
2017-02-04T06:26:14.212Z,998.68
2017-02-04T06:27:23.252Z,998.67
2017-02-04T06:28:33.119Z,998.63
2017-02-04T06:29:42.546Z,998.69
2017-02-04T06:30:52.742Z,998.66
2017-02-04T06:32:02.552Z,998.64
2017-02-04T06:33:12.743Z,998.65
2017-02-04T06:34:22.605Z,998.66
2017-02-04T06:35:31.648Z,998.67
2017-02-04T06:36:40.689Z,998.63
2017-02-04T06:37:50.497Z,998.63
2017-02-04T06:39:00.305Z,998.63
2017-02-04T06:40:09.736Z,998.6
2017-02-04T06:41:19.928Z,998.56
2017-02-04T06:42:29.742Z,998.54
2017-02-04T06:43:39.164Z,998.55
2017-02-04T06:44:48.210Z,998.49
2017-02-04T06:45:57.691Z,998.55
2017-02-04T06:47:07.121Z,998.5
2017-02-04T06:48:16.931Z,998.52
2017-02-04T06:49:25.978Z,998.5
2017-02-04T06:50:35.026Z,998.5
2017-02-04T06:51:44.065Z,998.51
2017-02-04T06:52:54.642Z,998.47
2017-02-04T06:54:04.068Z,998.57
2017-02-04T06:55:14.264Z,998.56
2017-02-04T06:56:22.929Z,998.58
2017-02-04T06:57:32.406Z,998.61
2017-02-04T06:58:41.838Z,998.56
2017-02-04T06:59:52.075Z,998.6
2017-02-04T07:01:02.272Z,998.63
2017-02-04T07:02:12.086Z,998.65
2017-02-04T07:03:21.135Z,998.65
2017-02-04T07:04:31.326Z,998.62
2017-02-04T07:05:41.135Z,998.62
2017-02-04T07:06:50.563Z,998.63
2017-02-04T07:07:59.609Z,998.68
2017-02-04T07:09:09.084Z,998.69
2017-02-04T07:10:18.548Z,998.68
2017-02-04T07:11:28.358Z,998.72
2017-02-04T07:12:38.166Z,998.73
2017-02-04T07:13:47.592Z,998.72
2017-02-04T07:14:56.638Z,998.77
2017-02-04T07:16:06.449Z,998.72
2017-02-04T07:17:16.261Z,998.77
2017-02-04T07:18:26.456Z,998.73
2017-02-04T07:19:37.034Z,998.72
2017-02-04T07:20:47.228Z,998.72
2017-02-04T07:21:57.037Z,998.72
2017-02-04T07:23:07.238Z,998.82
2017-02-04T07:24:17.815Z,998.8
2017-02-04T07:25:27.238Z,998.86
2017-02-04T07:26:37.100Z,998.85
2017-02-04T07:27:46.529Z,998.86
2017-02-04T07:28:56.339Z,998.82
2017-02-04T07:30:05.767Z,998.77
2017-02-04T07:31:15.588Z,998.77
2017-02-04T07:32:24.252Z,998.77
2017-02-04T07:33:33.678Z,998.75
2017-02-04T07:34:43.495Z,998.73
2017-02-04T07:35:52.929Z,998.67
2017-02-04T07:37:02.360Z,998.72
2017-02-04T07:38:12.230Z,998.7
2017-02-04T07:39:22.045Z,998.74
2017-02-04T07:40:31.473Z,998.79
2017-02-04T07:41:40.902Z,998.8
2017-02-04T07:42:50.748Z,998.82
2017-02-04T07:43:59.845Z,998.79
2017-02-04T07:45:08.890Z,998.81
2017-02-04T07:46:18.319Z,998.74
2017-02-04T07:47:28.510Z,998.78
2017-02-04T07:48:37.164Z,998.78
2017-02-04T07:49:46.596Z,998.77
2017-02-04T07:50:56.791Z,998.69
2017-02-04T07:52:06.225Z,998.74
2017-02-04T07:53:16.037Z,998.7
2017-02-04T07:54:25.461Z,998.71
2017-02-04T07:55:35.714Z,998.67
2017-02-04T07:56:45.529Z,998.71
2017-02-04T07:57:55.727Z,998.69
2017-02-04T07:59:05.156Z,998.67
2017-02-04T08:00:14.198Z,998.68
2017-02-04T08:01:24.775Z,998.66
2017-02-04T08:02:34.203Z,998.65
2017-02-04T08:03:43.254Z,998.63
2017-02-04T08:04:52.686Z,998.64
2017-02-04T08:06:02.120Z,998.65
2017-02-04T08:07:11.987Z,998.64
2017-02-04T08:08:20.653Z,998.59
2017-02-04T08:09:30.079Z,998.55
2017-02-04T08:10:39.511Z,998.53
2017-02-04T08:11:48.560Z,998.45
2017-02-04T08:12:58.040Z,998.46
2017-02-04T08:14:06.706Z,998.45
2017-02-04T08:15:16.129Z,998.43
2017-02-04T08:16:26.327Z,998.42
2017-02-04T08:17:36.145Z,998.43
2017-02-04T08:18:45.957Z,998.41
2017-02-04T08:19:56.537Z,998.45
2017-02-04T08:21:05.584Z,998.35
2017-02-04T08:22:15.017Z,998.4
2017-02-04T08:23:23.676Z,998.4
2017-02-04T08:24:34.301Z,998.41
2017-02-04T08:25:44.151Z,998.41
2017-02-04T08:26:54.348Z,998.46
2017-02-04T08:28:03.774Z,998.46
2017-02-04T08:29:13.970Z,998.45
2017-02-04T08:30:23.061Z,998.48
2017-02-04T08:31:32.874Z,998.45
2017-02-04T08:32:41.542Z,998.37
2017-02-04T08:33:50.973Z,998.34
2017-02-04T08:35:00.785Z,998.26
2017-02-04T08:36:10.666Z,998.17
2017-02-04T08:37:19.731Z,998.14
2017-02-04T08:38:29.542Z,998.13
2017-02-04T08:39:39.356Z,998.11
2017-02-04T08:40:48.788Z,998.09
2017-02-04T08:41:57.837Z,998.04
2017-02-04T08:43:07.659Z,998.01
2017-02-04T08:44:17.474Z,997.99
2017-02-04T08:45:26.522Z,997.99
2017-02-04T08:46:35.951Z,997.98
2017-02-04T08:47:45.428Z,998.01
2017-02-04T08:48:55.246Z,997.95
2017-02-04T08:50:04.681Z,997.97
2017-02-04T08:51:14.495Z,997.93
2017-02-04T08:52:23.932Z,997.91
2017-02-04T08:53:34.128Z,997.9
2017-02-04T08:54:44.143Z,997.9
2017-02-04T08:55:53.186Z,997.89
2017-02-04T08:57:02.616Z,997.88
2017-02-04T08:58:12.878Z,997.84
2017-02-04T08:59:22.695Z,997.83
2017-02-04T09:00:32.125Z,997.89
2017-02-04T09:01:42.321Z,997.88
2017-02-04T09:02:52.136Z,997.87
2017-02-04T09:04:01.566Z,997.86
2017-02-04T09:05:11.815Z,997.83
2017-02-04T09:06:21.242Z,997.78
2017-02-04T09:07:30.671Z,997.78
2017-02-04T09:08:40.106Z,997.79
2017-02-04T09:09:50.306Z,997.8
2017-02-04T09:10:59.357Z,997.72
2017-02-04T09:12:08.785Z,997.75
2017-02-04T09:13:18.986Z,997.69
2017-02-04T09:14:28.420Z,997.69
2017-02-04T09:15:38.240Z,997.65
2017-02-04T09:16:47.670Z,997.69
2017-02-04T09:17:58.247Z,997.67
2017-02-04T09:19:07.298Z,997.67
2017-02-04T09:20:16.735Z,997.68
2017-02-04T09:21:25.783Z,997.7
2017-02-04T09:22:35.978Z,997.68
2017-02-04T09:23:45.025Z,997.77
2017-02-04T09:24:54.067Z,997.75
2017-02-04T09:26:03.116Z,997.77
2017-02-04T09:27:12.941Z,997.75
2017-02-04T09:28:22.429Z,997.74
2017-02-04T09:29:32.248Z,997.78
2017-02-04T09:30:40.928Z,997.71
2017-02-04T09:31:51.127Z,997.73
2017-02-04T09:33:00.985Z,997.69
2017-02-04T09:34:10.035Z,997.73
2017-02-04T09:35:20.234Z,997.67
2017-02-04T09:36:30.050Z,997.64
2017-02-04T09:37:40.249Z,997.6
2017-02-04T09:38:49.682Z,997.57
2017-02-04T09:39:59.118Z,997.54
2017-02-04T09:41:08.554Z,997.49
2017-02-04T09:42:18.373Z,997.49
2017-02-04T09:43:27.815Z,997.43
2017-02-04T09:44:37.248Z,997.4
2017-02-04T09:45:47.121Z,997.39
2017-02-04T09:46:56.171Z,997.38
2017-02-04T09:48:06.755Z,997.38
2017-02-04T09:49:15.420Z,997.34
2017-02-04T09:50:25.238Z,997.26
2017-02-04T09:51:35.495Z,997.33
2017-02-04T09:52:44.926Z,997.31
2017-02-04T09:53:54.354Z,997.39
2017-02-04T09:55:03.414Z,997.35
2017-02-04T09:56:12.465Z,997.29
2017-02-04T09:57:21.953Z,997.24
2017-02-04T09:58:31.781Z,997.28
2017-02-04T09:59:41.596Z,997.24
2017-02-04T10:00:51.031Z,997.19
2017-02-04T10:02:00.476Z,997.17
2017-02-04T10:03:10.678Z,997.2
2017-02-04T10:04:20.877Z,997.24
2017-02-04T10:05:30.693Z,997.23
2017-02-04T10:06:40.134Z,997.21
2017-02-04T10:07:49.570Z,997.2
2017-02-04T10:08:59.442Z,997.24
2017-02-04T10:10:10.026Z,997.2
2017-02-04T10:11:19.846Z,997.21
2017-02-04T10:12:30.056Z,997.09
2017-02-04T10:13:39.111Z,997.11
2017-02-04T10:14:48.597Z,997.08
2017-02-04T10:15:57.653Z,997.1
2017-02-04T10:17:07.475Z,997.05
2017-02-04T10:18:16.942Z,997
2017-02-04T10:19:27.525Z,997.01
2017-02-04T10:20:37.387Z,997.01
2017-02-04T10:21:46.823Z,997.04
2017-02-04T10:22:57.024Z,997
2017-02-04T10:24:06.076Z,996.98
2017-02-04T10:25:15.513Z,997.03
2017-02-04T10:26:25.382Z,997.1
2017-02-04T10:27:34.817Z,997.02
2017-02-04T10:28:44.253Z,997.07
2017-02-04T10:29:54.071Z,997.09
2017-02-04T10:31:04.282Z,997.07
2017-02-04T10:32:14.918Z,997.09
2017-02-04T10:33:24.738Z,997.04
2017-02-04T10:34:34.557Z,997.02
2017-02-04T10:35:44.756Z,997.07
2017-02-04T10:36:54.959Z,997.05
2017-02-04T10:38:04.462Z,997.06
2017-02-04T10:39:13.900Z,997.02
2017-02-04T10:40:22.952Z,996.95
2017-02-04T10:41:33.535Z,996.89
2017-02-04T10:42:43.352Z,996.97
2017-02-04T10:43:52.791Z,996.92
2017-02-04T10:45:02.993Z,996.93
2017-02-04T10:46:12.810Z,996.91
2017-02-04T10:47:23.006Z,996.92
2017-02-04T10:48:32.819Z,996.87
2017-02-04T10:49:42.299Z,996.85
2017-02-04T10:50:52.122Z,996.85
2017-02-04T10:52:01.944Z,996.77
2017-02-04T10:53:10.995Z,996.79
2017-02-04T10:54:21.580Z,996.8
2017-02-04T10:55:31.011Z,996.76
2017-02-04T10:56:40.061Z,996.79
2017-02-04T10:57:49.874Z,996.83
2017-02-04T10:58:58.925Z,996.85
2017-02-04T11:00:07.986Z,996.82
2017-02-04T11:01:16.655Z,996.9
2017-02-04T11:02:25.706Z,996.86
2017-02-04T11:03:35.521Z,996.9
2017-02-04T11:04:44.959Z,996.91
2017-02-04T11:05:55.156Z,996.93
2017-02-04T11:07:04.206Z,996.89
2017-02-04T11:08:13.638Z,996.95
2017-02-04T11:09:23.851Z,996.89
2017-02-04T11:10:33.301Z,996.79
2017-02-04T11:11:42.741Z,996.8
2017-02-04T11:12:51.841Z,996.77
2017-02-04T11:14:01.659Z,996.8
2017-02-04T11:15:11.857Z,996.78
2017-02-04T11:16:20.909Z,996.75
2017-02-04T11:17:30.348Z,996.76
2017-02-04T11:18:40.166Z,996.76
2017-02-04T11:19:49.596Z,996.71
2017-02-04T11:20:59.030Z,996.72
2017-02-04T11:22:09.618Z,996.73
2017-02-04T11:23:19.816Z,996.77
2017-02-04T11:24:28.917Z,996.78
2017-02-04T11:25:38.730Z,996.82
2017-02-04T11:26:48.544Z,996.81
2017-02-04T11:27:57.975Z,996.81
2017-02-04T11:29:07.413Z,996.82
2017-02-04T11:30:17.608Z,996.85
2017-02-04T11:31:27.813Z,996.9
2017-02-04T11:32:37.632Z,996.96
2017-02-04T11:33:47.451Z,996.96
2017-02-04T11:34:57.269Z,997.01
2017-02-04T11:36:07.082Z,996.99
2017-02-04T11:37:16.139Z,997.01
2017-02-04T11:38:25.965Z,996.98
2017-02-04T11:39:35.785Z,996.99
2017-02-04T11:40:45.991Z,996.97
2017-02-04T11:41:55.046Z,996.92
2017-02-04T11:43:03.758Z,996.87
2017-02-04T11:44:13.207Z,996.86
2017-02-04T11:45:22.047Z,996.86
2017-02-04T11:46:31.862Z,996.87
2017-02-04T11:47:41.346Z,996.83
2017-02-04T11:48:51.198Z,996.84
2017-02-04T11:50:01.025Z,996.79
2017-02-04T11:51:10.464Z,996.78
2017-02-04T11:52:19.905Z,996.71
2017-02-04T11:53:30.100Z,996.76
2017-02-04T11:54:39.531Z,996.72
2017-02-04T11:55:48.960Z,996.7
2017-02-04T11:56:58.778Z,996.66
2017-02-04T11:58:08.205Z,996.66
2017-02-04T11:59:18.414Z,996.67
2017-02-04T12:00:28.234Z,996.65
2017-02-04T12:01:38.046Z,996.58
2017-02-04T12:02:47.483Z,996.59
2017-02-04T12:03:56.917Z,996.58
2017-02-04T12:05:05.966Z,996.52
2017-02-04T12:06:16.174Z,996.54
2017-02-04T12:07:25.600Z,996.54
2017-02-04T12:08:35.801Z,996.49
2017-02-04T12:09:45.236Z,996.52
2017-02-04T12:10:55.051Z,996.51
2017-02-04T12:12:04.487Z,996.49
2017-02-04T12:13:14.306Z,996.48
2017-02-04T12:14:24.125Z,996.46
2017-02-04T12:15:33.563Z,996.45
2017-02-04T12:16:42.995Z,996.43
2017-02-04T12:17:53.580Z,996.42
2017-02-04T12:19:03.015Z,996.44
2017-02-04T12:20:12.839Z,996.45
2017-02-04T12:21:21.896Z,996.43
2017-02-04T12:22:32.095Z,996.46
2017-02-04T12:23:41.916Z,996.45
2017-02-04T12:24:51.351Z,996.41
2017-02-04T12:26:01.552Z,996.4
2017-02-04T12:27:11.371Z,996.36
2017-02-04T12:28:20.804Z,996.33
2017-02-04T12:29:30.627Z,996.41
2017-02-04T12:30:39.682Z,996.4
2017-02-04T12:31:49.881Z,996.33
2017-02-04T12:32:59.315Z,996.35
2017-02-04T12:34:08.747Z,996.33
2017-02-04T12:35:18.949Z,996.35
2017-02-04T12:36:28.383Z,996.38
2017-02-04T12:37:38.198Z,996.35
2017-02-04T12:38:47.633Z,996.35
2017-02-04T12:39:56.677Z,996.37
2017-02-04T12:41:06.495Z,996.41
2017-02-04T12:42:15.934Z,996.36
2017-02-04T12:43:25.366Z,996.36
2017-02-04T12:44:35.198Z,996.35
2017-02-04T12:45:44.635Z,996.33
2017-02-04T12:46:54.457Z,996.35
2017-02-04T12:48:05.079Z,996.34
2017-02-04T12:49:15.279Z,996.35
2017-02-04T12:50:25.480Z,996.37
2017-02-04T12:51:34.912Z,996.34
2017-02-04T12:52:45.114Z,996.33
2017-02-04T12:53:54.543Z,996.33
2017-02-04T12:55:03.220Z,996.33
2017-02-04T12:56:12.650Z,996.27
2017-02-04T12:57:22.138Z,996.21
2017-02-04T12:58:31.189Z,996.22
2017-02-04T12:59:41.003Z,996.22
2017-02-04T13:00:50.439Z,996.22
2017-02-04T13:01:59.871Z,996.3
2017-02-04T13:03:10.074Z,996.28
2017-02-04T13:04:19.896Z,996.25
2017-02-04T13:05:30.096Z,996.24
2017-02-04T13:06:39.143Z,996.22
2017-02-04T13:07:48.960Z,996.24
2017-02-04T13:08:58.786Z,996.27
2017-02-04T13:10:08.601Z,996.28
2017-02-04T13:11:18.433Z,996.23
2017-02-04T13:12:27.869Z,996.24
2017-02-04T13:13:37.307Z,996.2
2017-02-04T13:14:47.131Z,996.2
2017-02-04T13:15:56.599Z,996.21
2017-02-04T13:17:06.035Z,996.23
2017-02-04T13:18:15.467Z,996.26
2017-02-04T13:19:24.517Z,996.22
2017-02-04T13:20:33.954Z,996.17
2017-02-04T13:21:43.771Z,996.22
2017-02-04T13:22:53.593Z,996.18
2017-02-04T13:24:03.411Z,996.17
2017-02-04T13:25:12.843Z,996.15
2017-02-04T13:26:22.331Z,996.19
2017-02-04T13:27:32.532Z,996.2
2017-02-04T13:28:41.582Z,996.22
2017-02-04T13:29:50.258Z,996.24
2017-02-04T13:31:00.836Z,996.21
2017-02-04T13:32:10.694Z,996.2
2017-02-04T13:33:20.899Z,996.2
2017-02-04T13:34:30.717Z,996.24
2017-02-04T13:35:40.917Z,996.18
2017-02-04T13:36:51.115Z,996.16
2017-02-04T13:38:00.604Z,996.25
2017-02-04T13:39:09.651Z,996.22
2017-02-04T13:40:19.094Z,996.19
2017-02-04T13:41:28.523Z,996.22
2017-02-04T13:42:38.341Z,996.2
2017-02-04T13:43:48.220Z,996.17
2017-02-04T13:44:58.804Z,996.19
2017-02-04T13:46:08.999Z,996.12
2017-02-04T13:47:18.817Z,996.09
2017-02-04T13:48:28.634Z,996.13
2017-02-04T13:49:38.497Z,996.09
2017-02-04T13:50:47.929Z,996.05
2017-02-04T13:51:57.366Z,996.1
2017-02-04T13:53:07.566Z,996.05
2017-02-04T13:54:17.389Z,996.05
2017-02-04T13:55:26.872Z,996.04
2017-02-04T13:56:36.307Z,996
2017-02-04T13:57:46.126Z,996.02
2017-02-04T13:58:55.981Z,996.06
2017-02-04T14:00:06.184Z,996.04
2017-02-04T14:01:16.385Z,996.02
2017-02-04T14:02:25.821Z,996.03
2017-02-04T14:03:35.638Z,995.97
2017-02-04T14:04:45.456Z,996
2017-02-04T14:05:55.657Z,996.02
2017-02-04T14:07:06.038Z,995.99
2017-02-04T14:08:15.482Z,996.03
2017-02-04T14:09:24.919Z,996.02
2017-02-04T14:10:34.733Z,996.01
2017-02-04T14:11:43.407Z,995.99
2017-02-04T14:12:52.835Z,996.01
2017-02-04T14:14:02.267Z,996.01
2017-02-04T14:15:12.473Z,996.05
2017-02-04T14:16:21.534Z,996
2017-02-04T14:17:31.350Z,996.02
2017-02-04T14:18:40.406Z,995.99
2017-02-04T14:19:49.460Z,996
2017-02-04T14:20:58.510Z,995.97
2017-02-04T14:22:09.096Z,995.99
2017-02-04T14:23:18.913Z,995.94
2017-02-04T14:24:28.043Z,995.93
2017-02-04T14:25:37.472Z,995.95
2017-02-04T14:26:47.673Z,995.94
2017-02-04T14:27:57.104Z,995.9
2017-02-04T14:29:06.924Z,995.94
2017-02-04T14:30:16.398Z,995.95
2017-02-04T14:31:26.983Z,995.94
2017-02-04T14:32:37.567Z,995.9